sensor_id;sensor_type;location;lat;lon;timestamp;P1;durP1;ratioP1;P2;durP2;ratioP2
7003;SDS011;3542;48.812;9.146;2023-05-10T00:02:21;2.40;;;0.90;;
7003;SDS011;3542;48.812;9.146;2023-05-10T00:04:49;0.80;;;0.80;;
7003;SDS011;3542;48.812;9.146;2023-05-10T00:07:15;0.80;;;0.70;;
7003;SDS011;3542;48.812;9.146;2023-05-10T00:09:42;0.80;;;0.80;;
7003;SDS011;3542;48.812;9.146;2023-05-10T00:12:08;0.97;;;0.60;;
7003;SDS011;3542;48.812;9.146;2023-05-10T00:14:33;4.23;;;0.60;;
7003;SDS011;3542;48.812;9.146;2023-05-10T00:16:59;1.20;;;0.77;;
7003;SDS011;3542;48.812;9.146;2023-05-10T00:19:25;1.63;;;0.50;;
7003;SDS011;3542;48.812;9.146;2023-05-10T00:21:50;0.50;;;0.40;;
7003;SDS011;3542;48.812;9.146;2023-05-10T00:24:16;0.40;;;0.40;;
7003;SDS011;3542;48.812;9.146;2023-05-10T00:26:41;0.83;;;0.40;;
7003;SDS011;3542;48.812;9.146;2023-05-10T00:29:07;3.43;;;0.50;;
7003;SDS011;3542;48.812;9.146;2023-05-10T00:31:32;0.50;;;0.50;;
7003;SDS011;3542;48.812;9.146;2023-05-10T00:33:58;0.50;;;0.50;;
7003;SDS011;3542;48.812;9.146;2023-05-10T00:36:24;1.80;;;0.40;;
7003;SDS011;3542;48.812;9.146;2023-05-10T00:38:49;1.47;;;0.40;;
7003;SDS011;3542;48.812;9.146;2023-05-10T00:41:15;0.40;;;0.40;;
7003;SDS011;3542;48.812;9.146;2023-05-10T00:43:40;0.40;;;0.40;;
7003;SDS011;3542;48.812;9.146;2023-05-10T00:46:06;1.13;;;0.40;;
7003;SDS011;3542;48.812;9.146;2023-05-10T00:48:32;1.17;;;1.07;;
7003;SDS011;3542;48.812;9.146;2023-05-10T00:50:58;0.70;;;0.40;;
7003;SDS011;3542;48.812;9.146;2023-05-10T00:53:24;2.73;;;0.40;;
7003;SDS011;3542;48.812;9.146;2023-05-10T00:55:50;0.40;;;0.40;;
7003;SDS011;3542;48.812;9.146;2023-05-10T00:58:16;1.33;;;0.40;;
7003;SDS011;3542;48.812;9.146;2023-05-10T02:31:19;2.40;;;0.73;;
7003;SDS011;3542;48.812;9.146;2023-05-10T02:33:46;1.17;;;0.70;;
7003;SDS011;3542;48.812;9.146;2023-05-10T02:36:13;1.63;;;0.60;;
7003;SDS011;3542;48.812;9.146;2023-05-10T02:38:40;0.70;;;0.70;;
7003;SDS011;3542;48.812;9.146;2023-05-10T02:41:07;1.20;;;0.70;;
7003;SDS011;3542;48.812;9.146;2023-05-10T02:43:35;0.60;;;0.60;;
7003;SDS011;3542;48.812;9.146;2023-05-10T02:46:01;0.80;;;0.50;;
7003;SDS011;3542;48.812;9.146;2023-05-10T02:48:29;1.77;;;0.60;;
7003;SDS011;3542;48.812;9.146;2023-05-10T02:50:56;0.70;;;0.70;;
7003;SDS011;3542;48.812;9.146;2023-05-10T02:53:30;0.70;;;0.70;;
7003;SDS011;3542;48.812;9.146;2023-05-10T02:55:58;0.60;;;0.60;;
7003;SDS011;3542;48.812;9.146;2023-05-10T02:58:26;0.60;;;0.60;;
7003;SDS011;3542;48.812;9.146;2023-05-10T03:00:52;2.20;;;0.70;;
7003;SDS011;3542;48.812;9.146;2023-05-10T03:03:17;0.60;;;0.60;;
7003;SDS011;3542;48.812;9.146;2023-05-10T03:05:47;0.70;;;0.70;;
7003;SDS011;3542;48.812;9.146;2023-05-10T03:08:13;1.57;;;0.53;;
7003;SDS011;3542;48.812;9.146;2023-05-10T03:10:46;3.00;;;0.80;;
7003;SDS011;3542;48.812;9.146;2023-05-10T03:16:22;1.10;;;0.70;;
7003;SDS011;3542;48.812;9.146;2023-05-10T03:18:56;1.93;;;0.90;;
7003;SDS011;3542;48.812;9.146;2023-05-10T03:21:36;1.53;;;0.70;;
7003;SDS011;3542;48.812;9.146;2023-05-10T03:24:07;0.60;;;0.60;;
7003;SDS011;3542;48.812;9.146;2023-05-10T03:26:33;0.60;;;0.60;;
7003;SDS011;3542;48.812;9.146;2023-05-10T03:29:01;1.60;;;0.80;;
7003;SDS011;3542;48.812;9.146;2023-05-10T03:31:28;0.80;;;0.70;;
7003;SDS011;3542;48.812;9.146;2023-05-10T03:33:54;2.30;;;0.70;;
7003;SDS011;3542;48.812;9.146;2023-05-10T03:36:19;0.90;;;0.90;;
7003;SDS011;3542;48.812;9.146;2023-05-10T03:38:45;1.63;;;0.70;;
7003;SDS011;3542;48.812;9.146;2023-05-10T03:41:10;0.70;;;0.70;;
7003;SDS011;3542;48.812;9.146;2023-05-10T03:43:36;0.70;;;0.70;;
7003;SDS011;3542;48.812;9.146;2023-05-10T03:46:05;3.37;;;1.10;;
7003;SDS011;3542;48.812;9.146;2023-05-10T03:48:31;1.17;;;1.17;;
7003;SDS011;3542;48.812;9.146;2023-05-10T03:50:58;0.83;;;0.83;;
7003;SDS011;3542;48.812;9.146;2023-05-10T03:53:26;1.20;;;1.10;;
7003;SDS011;3542;48.812;9.146;2023-05-10T03:55:52;1.07;;;1.07;;
7003;SDS011;3542;48.812;9.146;2023-05-10T03:58:17;1.23;;;1.23;;
7003;SDS011;3542;48.812;9.146;2023-05-10T04:00:46;3.90;;;1.23;;
7003;SDS011;3542;48.812;9.146;2023-05-10T04:03:12;1.43;;;1.10;;
7003;SDS011;3542;48.812;9.146;2023-05-10T04:05:37;5.90;;;0.90;;
7003;SDS011;3542;48.812;9.146;2023-05-10T04:08:05;3.53;;;1.03;;
7003;SDS011;3542;48.812;9.146;2023-05-10T04:10:31;1.10;;;0.93;;
7003;SDS011;3542;48.812;9.146;2023-05-10T04:12:57;3.80;;;1.30;;
7003;SDS011;3542;48.812;9.146;2023-05-10T04:15:23;1.27;;;1.17;;
7003;SDS011;3542;48.812;9.146;2023-05-10T04:17:48;2.77;;;1.27;;
7003;SDS011;3542;48.812;9.146;2023-05-10T04:20:15;1.00;;;0.90;;
7003;SDS011;3542;48.812;9.146;2023-05-10T04:22:40;1.10;;;1.10;;
7003;SDS011;3542;48.812;9.146;2023-05-10T04:25:06;3.80;;;1.00;;
7003;SDS011;3542;48.812;9.146;2023-05-10T04:27:32;1.63;;;0.90;;
7003;SDS011;3542;48.812;9.146;2023-05-10T04:29:58;2.70;;;1.27;;
7003;SDS011;3542;48.812;9.146;2023-05-10T04:32:23;4.67;;;1.10;;
7003;SDS011;3542;48.812;9.146;2023-05-10T04:34:49;2.93;;;1.10;;
7003;SDS011;3542;48.812;9.146;2023-05-10T04:37:16;2.10;;;1.00;;
7003;SDS011;3542;48.812;9.146;2023-05-10T04:39:41;0.80;;;0.80;;
7003;SDS011;3542;48.812;9.146;2023-05-10T04:42:07;2.60;;;0.90;;
7003;SDS011;3542;48.812;9.146;2023-05-10T04:44:33;4.57;;;1.03;;
7003;SDS011;3542;48.812;9.146;2023-05-10T04:47:01;2.73;;;1.07;;
7003;SDS011;3542;48.812;9.146;2023-05-10T04:49:28;1.10;;;1.10;;
7003;SDS011;3542;48.812;9.146;2023-05-10T04:51:54;2.17;;;1.10;;
7003;SDS011;3542;48.812;9.146;2023-05-10T04:54:20;5.07;;;1.17;;
7003;SDS011;3542;48.812;9.146;2023-05-10T04:56:45;2.10;;;1.20;;
7003;SDS011;3542;48.812;9.146;2023-05-10T04:59:11;1.00;;;0.90;;
7003;SDS011;3542;48.812;9.146;2023-05-10T05:01:36;2.20;;;0.90;;
7003;SDS011;3542;48.812;9.146;2023-05-10T05:04:02;1.60;;;0.60;;
7003;SDS011;3542;48.812;9.146;2023-05-10T05:06:28;1.10;;;1.10;;
7003;SDS011;3542;48.812;9.146;2023-05-10T05:08:53;1.13;;;1.13;;
7003;SDS011;3542;48.812;9.146;2023-05-10T05:11:19;1.07;;;1.07;;
7003;SDS011;3542;48.812;9.146;2023-05-10T05:13:45;2.67;;;0.93;;
7003;SDS011;3542;48.812;9.146;2023-05-10T05:16:11;1.83;;;1.70;;
7003;SDS011;3542;48.812;9.146;2023-05-10T05:18:36;1.13;;;1.13;;
7003;SDS011;3542;48.812;9.146;2023-05-10T05:21:02;0.90;;;0.80;;
7003;SDS011;3542;48.812;9.146;2023-05-10T05:23:28;1.63;;;1.17;;
7003;SDS011;3542;48.812;9.146;2023-05-10T05:25:53;1.53;;;0.90;;
7003;SDS011;3542;48.812;9.146;2023-05-10T05:28:19;1.00;;;1.00;;
7003;SDS011;3542;48.812;9.146;2023-05-10T05:30:45;0.80;;;0.80;;
7003;SDS011;3542;48.812;9.146;2023-05-10T05:33:11;1.40;;;1.23;;
7003;SDS011;3542;48.812;9.146;2023-05-10T05:35:38;2.47;;;1.07;;
7003;SDS011;3542;48.812;9.146;2023-05-10T05:38:04;1.07;;;0.80;;
7003;SDS011;3542;48.812;9.146;2023-05-10T05:40:30;1.97;;;0.80;;
7003;SDS011;3542;48.812;9.146;2023-05-10T05:42:55;2.60;;;1.23;;
7003;SDS011;3542;48.812;9.146;2023-05-10T05:45:21;2.00;;;1.00;;
7003;SDS011;3542;48.812;9.146;2023-05-10T05:47:46;1.43;;;1.33;;
7003;SDS011;3542;48.812;9.146;2023-05-10T05:50:15;5.80;;;0.93;;
7003;SDS011;3542;48.812;9.146;2023-05-10T05:52:40;2.27;;;0.73;;
7003;SDS011;3542;48.812;9.146;2023-05-10T05:55:06;1.13;;;1.13;;
7003;SDS011;3542;48.812;9.146;2023-05-10T05:57:34;1.70;;;0.90;;
7003;SDS011;3542;48.812;9.146;2023-05-10T06:00:00;1.40;;;1.30;;
7003;SDS011;3542;48.812;9.146;2023-05-10T06:02:25;1.00;;;1.00;;
7003;SDS011;3542;48.812;9.146;2023-05-10T06:04:51;1.93;;;1.07;;
7003;SDS011;3542;48.812;9.146;2023-05-10T06:07:18;1.47;;;0.97;;
7003;SDS011;3542;48.812;9.146;2023-05-10T06:09:43;2.07;;;1.20;;
7003;SDS011;3542;48.812;9.146;2023-05-10T06:12:09;1.47;;;0.93;;
7003;SDS011;3542;48.812;9.146;2023-05-10T06:14:36;0.90;;;0.90;;
7003;SDS011;3542;48.812;9.146;2023-05-10T06:17:02;1.00;;;0.80;;
7003;SDS011;3542;48.812;9.146;2023-05-10T06:19:29;3.63;;;0.97;;
7003;SDS011;3542;48.812;9.146;2023-05-10T06:21:55;0.80;;;0.70;;
7003;SDS011;3542;48.812;9.146;2023-05-10T06:24:21;0.70;;;0.70;;
7003;SDS011;3542;48.812;9.146;2023-05-10T06:26:46;1.10;;;1.10;;
7003;SDS011;3542;48.812;9.146;2023-05-10T06:29:14;2.90;;;1.57;;
7003;SDS011;3542;48.812;9.146;2023-05-10T06:31:40;1.20;;;1.10;;
7003;SDS011;3542;48.812;9.146;2023-05-10T06:34:05;1.27;;;1.13;;
7003;SDS011;3542;48.812;9.146;2023-05-10T06:36:32;1.67;;;1.43;;
7003;SDS011;3542;48.812;9.146;2023-05-10T06:38:58;1.20;;;1.10;;
7003;SDS011;3542;48.812;9.146;2023-05-10T06:41:24;2.23;;;1.43;;
7003;SDS011;3542;48.812;9.146;2023-05-10T06:43:49;1.10;;;1.10;;
7003;SDS011;3542;48.812;9.146;2023-05-10T06:46:15;0.97;;;0.97;;
7003;SDS011;3542;48.812;9.146;2023-05-10T06:48:40;1.37;;;1.27;;
7003;SDS011;3542;48.812;9.146;2023-05-10T06:51:06;1.03;;;1.03;;
7003;SDS011;3542;48.812;9.146;2023-05-10T06:53:31;1.30;;;1.20;;
7003;SDS011;3542;48.812;9.146;2023-05-10T06:55:57;1.97;;;1.30;;
7003;SDS011;3542;48.812;9.146;2023-05-10T06:58:23;1.10;;;1.00;;
7003;SDS011;3542;48.812;9.146;2023-05-10T07:00:48;6.23;;;1.00;;
7003;SDS011;3542;48.812;9.146;2023-05-10T07:03:14;0.83;;;0.83;;
7003;SDS011;3542;48.812;9.146;2023-05-10T07:05:40;3.73;;;1.30;;
7003;SDS011;3542;48.812;9.146;2023-05-10T07:08:08;0.80;;;0.80;;
7003;SDS011;3542;48.812;9.146;2023-05-10T07:10:34;2.80;;;1.03;;
7003;SDS011;3542;48.812;9.146;2023-05-10T07:12:59;2.93;;;1.10;;
7003;SDS011;3542;48.812;9.146;2023-05-10T07:15:26;1.10;;;1.00;;
7003;SDS011;3542;48.812;9.146;2023-05-10T07:17:51;1.20;;;1.10;;
7003;SDS011;3542;48.812;9.146;2023-05-10T07:20:17;2.20;;;0.90;;
7003;SDS011;3542;48.812;9.146;2023-05-10T07:22:42;1.00;;;0.90;;
7003;SDS011;3542;48.812;9.146;2023-05-10T07:25:08;1.50;;;0.80;;
7003;SDS011;3542;48.812;9.146;2023-05-10T07:27:34;1.67;;;0.90;;
7003;SDS011;3542;48.812;9.146;2023-05-10T07:29:59;1.60;;;0.70;;
7003;SDS011;3542;48.812;9.146;2023-05-10T07:32:25;0.90;;;0.80;;
7003;SDS011;3542;48.812;9.146;2023-05-10T07:34:51;0.83;;;0.83;;
7003;SDS011;3542;48.812;9.146;2023-05-10T07:37:16;2.30;;;0.90;;
7003;SDS011;3542;48.812;9.146;2023-05-10T07:39:45;2.00;;;0.87;;
7003;SDS011;3542;48.812;9.146;2023-05-10T07:42:10;2.43;;;0.90;;
7003;SDS011;3542;48.812;9.146;2023-05-10T07:44:36;1.77;;;0.77;;
7003;SDS011;3542;48.812;9.146;2023-05-10T07:47:04;1.40;;;0.83;;
7003;SDS011;3542;48.812;9.146;2023-05-10T07:49:30;1.83;;;0.60;;
7003;SDS011;3542;48.812;9.146;2023-05-10T07:51:55;1.00;;;1.00;;
7003;SDS011;3542;48.812;9.146;2023-05-10T07:54:24;0.80;;;0.80;;
7003;SDS011;3542;48.812;9.146;2023-05-10T07:56:50;0.60;;;0.57;;
7003;SDS011;3542;48.812;9.146;2023-05-10T07:59:16;1.17;;;0.87;;
7003;SDS011;3542;48.812;9.146;2023-05-10T08:01:42;1.80;;;0.90;;
7003;SDS011;3542;48.812;9.146;2023-05-10T08:04:08;1.00;;;0.90;;
7003;SDS011;3542;48.812;9.146;2023-05-10T08:06:34;1.43;;;0.63;;
7003;SDS011;3542;48.812;9.146;2023-05-10T08:09:00;0.70;;;0.70;;
7003;SDS011;3542;48.812;9.146;2023-05-10T08:11:25;1.13;;;0.70;;
7003;SDS011;3542;48.812;9.146;2023-05-10T08:13:52;1.97;;;0.60;;
7003;SDS011;3542;48.812;9.146;2023-05-10T08:16:18;0.70;;;0.70;;
7003;SDS011;3542;48.812;9.146;2023-05-10T08:18:44;0.90;;;0.70;;
7003;SDS011;3542;48.812;9.146;2023-05-10T08:21:11;1.53;;;0.70;;
7003;SDS011;3542;48.812;9.146;2023-05-10T08:23:37;1.47;;;0.70;;
7003;SDS011;3542;48.812;9.146;2023-05-10T08:26:03;0.93;;;0.60;;
7003;SDS011;3542;48.812;9.146;2023-05-10T08:28:28;0.80;;;0.70;;
7003;SDS011;3542;48.812;9.146;2023-05-10T08:30:54;2.73;;;0.60;;
7003;SDS011;3542;48.812;9.146;2023-05-10T08:33:21;1.03;;;0.50;;
7003;SDS011;3542;48.812;9.146;2023-05-10T08:35:46;0.50;;;0.50;;
7003;SDS011;3542;48.812;9.146;2023-05-10T08:38:12;1.70;;;0.53;;
7003;SDS011;3542;48.812;9.146;2023-05-10T08:40:41;1.63;;;0.67;;
7003;SDS011;3542;48.812;9.146;2023-05-10T08:43:08;1.13;;;0.70;;
7003;SDS011;3542;48.812;9.146;2023-05-10T08:45:40;2.33;;;0.70;;
7003;SDS011;3542;48.812;9.146;2023-05-10T08:48:08;0.67;;;0.60;;
7003;SDS011;3542;48.812;9.146;2023-05-10T08:50:38;0.60;;;0.60;;
7003;SDS011;3542;48.812;9.146;2023-05-10T08:53:05;0.80;;;0.60;;
7003;SDS011;3542;48.812;9.146;2023-05-10T08:55:34;2.03;;;0.47;;
7003;SDS011;3542;48.812;9.146;2023-05-10T08:58:06;0.77;;;0.50;;
7003;SDS011;3542;48.812;9.146;2023-05-10T09:00:32;0.90;;;0.50;;
7003;SDS011;3542;48.812;9.146;2023-05-10T09:02:58;1.80;;;0.63;;
7003;SDS011;3542;48.812;9.146;2023-05-10T09:05:24;0.70;;;0.70;;
7003;SDS011;3542;48.812;9.146;2023-05-10T09:07:50;0.77;;;0.50;;
7003;SDS011;3542;48.812;9.146;2023-05-10T09:10:16;0.50;;;0.50;;
7003;SDS011;3542;48.812;9.146;2023-05-10T09:12:45;0.50;;;0.40;;
7003;SDS011;3542;48.812;9.146;2023-05-10T09:15:11;0.40;;;0.40;;
7003;SDS011;3542;48.812;9.146;2023-05-10T09:17:40;1.43;;;0.50;;
7003;SDS011;3542;48.812;9.146;2023-05-10T09:20:07;0.70;;;0.40;;
7003;SDS011;3542;48.812;9.146;2023-05-10T09:22:35;1.03;;;0.60;;
7003;SDS011;3542;48.812;9.146;2023-05-10T09:25:09;1.20;;;0.50;;
7003;SDS011;3542;48.812;9.146;2023-05-10T09:27:37;0.60;;;0.50;;
7003;SDS011;3542;48.812;9.146;2023-05-10T09:30:09;1.23;;;0.47;;
7003;SDS011;3542;48.812;9.146;2023-05-10T09:32:36;6.90;;;0.67;;
7003;SDS011;3542;48.812;9.146;2023-05-10T09:37:42;0.60;;;0.60;;
7003;SDS011;3542;48.812;9.146;2023-05-10T09:42:41;0.50;;;0.50;;
7003;SDS011;3542;48.812;9.146;2023-05-10T09:45:08;0.50;;;0.50;;
7003;SDS011;3542;48.812;9.146;2023-05-10T09:47:34;0.67;;;0.60;;
7003;SDS011;3542;48.812;9.146;2023-05-10T09:50:01;1.63;;;0.63;;
7003;SDS011;3542;48.812;9.146;2023-05-10T09:52:29;0.70;;;0.60;;
7003;SDS011;3542;48.812;9.146;2023-05-10T09:54:55;1.00;;;0.60;;
7003;SDS011;3542;48.812;9.146;2023-05-10T09:57:21;0.50;;;0.43;;
7003;SDS011;3542;48.812;9.146;2023-05-10T09:59:47;0.83;;;0.60;;
7003;SDS011;3542;48.812;9.146;2023-05-10T10:02:14;0.67;;;0.50;;
7003;SDS011;3542;48.812;9.146;2023-05-10T10:04:40;1.20;;;0.50;;
7003;SDS011;3542;48.812;9.146;2023-05-10T10:07:06;1.63;;;0.50;;
7003;SDS011;3542;48.812;9.146;2023-05-10T10:09:32;1.00;;;0.60;;
7003;SDS011;3542;48.812;9.146;2023-05-10T10:12:00;3.10;;;0.60;;
7003;SDS011;3542;48.812;9.146;2023-05-10T10:14:26;6.33;;;0.50;;
7003;SDS011;3542;48.812;9.146;2023-05-10T10:16:53;1.40;;;0.60;;
7003;SDS011;3542;48.812;9.146;2023-05-10T10:19:19;1.03;;;0.53;;
7003;SDS011;3542;48.812;9.146;2023-05-10T10:21:49;0.50;;;0.50;;
7003;SDS011;3542;48.812;9.146;2023-05-10T10:24:15;1.60;;;0.50;;
7003;SDS011;3542;48.812;9.146;2023-05-10T10:26:41;1.60;;;0.70;;
7003;SDS011;3542;48.812;9.146;2023-05-10T10:32:03;1.27;;;0.50;;
7003;SDS011;3542;48.812;9.146;2023-05-10T10:34:45;2.10;;;0.60;;
7003;SDS011;3542;48.812;9.146;2023-05-10T10:37:11;2.00;;;0.50;;
7003;SDS011;3542;48.812;9.146;2023-05-10T10:39:37;1.90;;;0.60;;
7003;SDS011;3542;48.812;9.146;2023-05-10T10:42:03;0.53;;;0.53;;
7003;SDS011;3542;48.812;9.146;2023-05-10T10:50:21;3.23;;;0.63;;
7003;SDS011;3542;48.812;9.146;2023-05-10T10:52:32;2.10;;;0.60;;
7003;SDS011;3542;48.812;9.146;2023-05-10T10:55:08;1.90;;;0.73;;
7003;SDS011;3542;48.812;9.146;2023-05-10T10:57:54;4.80;;;0.60;;
7003;SDS011;3542;48.812;9.146;2023-05-10T11:00:29;0.80;;;0.50;;
7003;SDS011;3542;48.812;9.146;2023-05-10T11:07:54;0.30;;;0.30;;
7003;SDS011;3542;48.812;9.146;2023-05-10T11:10:22;0.50;;;0.50;;
7003;SDS011;3542;48.812;9.146;2023-05-10T11:13:01;0.50;;;0.40;;
7003;SDS011;3542;48.812;9.146;2023-05-10T11:15:33;3.43;;;0.50;;
7003;SDS011;3542;48.812;9.146;2023-05-10T11:18:00;1.47;;;0.60;;
7003;SDS011;3542;48.812;9.146;2023-05-10T11:20:41;2.37;;;0.70;;
7003;SDS011;3542;48.812;9.146;2023-05-10T11:23:11;0.77;;;0.50;;
7003;SDS011;3542;48.812;9.146;2023-05-10T11:25:44;0.60;;;0.50;;
7003;SDS011;3542;48.812;9.146;2023-05-10T11:28:11;1.00;;;0.50;;
7003;SDS011;3542;48.812;9.146;2023-05-10T11:30:38;1.27;;;0.60;;
7003;SDS011;3542;48.812;9.146;2023-05-10T11:33:08;1.00;;;0.80;;
7003;SDS011;3542;48.812;9.146;2023-05-10T11:35:41;0.90;;;0.53;;
7003;SDS011;3542;48.812;9.146;2023-05-10T11:38:07;1.00;;;0.60;;
7003;SDS011;3542;48.812;9.146;2023-05-10T11:40:34;1.57;;;0.70;;
7003;SDS011;3542;48.812;9.146;2023-05-10T11:43:01;0.50;;;0.50;;
7003;SDS011;3542;48.812;9.146;2023-05-10T11:45:27;1.43;;;0.50;;
7003;SDS011;3542;48.812;9.146;2023-05-10T11:47:57;0.63;;;0.60;;
7003;SDS011;3542;48.812;9.146;2023-05-10T11:50:22;1.90;;;0.60;;
7003;SDS011;3542;48.812;9.146;2023-05-10T11:52:55;1.47;;;0.70;;
7003;SDS011;3542;48.812;9.146;2023-05-10T11:55:21;2.00;;;0.53;;
7003;SDS011;3542;48.812;9.146;2023-05-10T11:57:48;0.73;;;0.73;;
7003;SDS011;3542;48.812;9.146;2023-05-10T12:00:17;2.30;;;0.80;;
7003;SDS011;3542;48.812;9.146;2023-05-10T12:02:42;2.07;;;0.73;;
7003;SDS011;3542;48.812;9.146;2023-05-10T12:05:08;0.70;;;0.60;;
7003;SDS011;3542;48.812;9.146;2023-05-10T12:07:35;7.80;;;0.80;;
7003;SDS011;3542;48.812;9.146;2023-05-10T12:10:10;2.20;;;1.00;;
7003;SDS011;3542;48.812;9.146;2023-05-10T12:12:51;0.93;;;0.77;;
7003;SDS011;3542;48.812;9.146;2023-05-10T12:15:22;3.77;;;0.70;;
7003;SDS011;3542;48.812;9.146;2023-05-10T12:17:49;3.33;;;0.70;;
7003;SDS011;3542;48.812;9.146;2023-05-10T12:20:16;2.83;;;0.83;;
7003;SDS011;3542;48.812;9.146;2023-05-10T12:22:46;2.93;;;0.90;;
7003;SDS011;3542;48.812;9.146;2023-05-10T12:25:17;2.50;;;0.80;;
7003;SDS011;3542;48.812;9.146;2023-05-10T12:27:56;1.47;;;1.00;;
7003;SDS011;3542;48.812;9.146;2023-05-10T12:30:25;1.23;;;0.67;;
7003;SDS011;3542;48.812;9.146;2023-05-10T12:32:52;2.37;;;0.70;;
7003;SDS011;3542;48.812;9.146;2023-05-10T12:35:19;0.90;;;0.60;;
7003;SDS011;3542;48.812;9.146;2023-05-10T12:37:47;2.50;;;0.63;;
7003;SDS011;3542;48.812;9.146;2023-05-10T12:40:13;1.97;;;0.80;;
7003;SDS011;3542;48.812;9.146;2023-05-10T12:42:40;1.13;;;0.90;;
7003;SDS011;3542;48.812;9.146;2023-05-10T12:45:06;1.00;;;0.60;;
7003;SDS011;3542;48.812;9.146;2023-05-10T12:47:33;1.03;;;0.70;;
7003;SDS011;3542;48.812;9.146;2023-05-10T12:50:02;1.27;;;0.70;;
7003;SDS011;3542;48.812;9.146;2023-05-10T12:52:29;0.70;;;0.63;;
7003;SDS011;3542;48.812;9.146;2023-05-10T12:54:54;1.40;;;0.63;;
7003;SDS011;3542;48.812;9.146;2023-05-10T12:57:20;1.13;;;0.73;;
7003;SDS011;3542;48.812;9.146;2023-05-10T12:59:46;1.00;;;0.70;;
7003;SDS011;3542;48.812;9.146;2023-05-10T13:02:12;1.80;;;0.60;;
7003;SDS011;3542;48.812;9.146;2023-05-10T13:04:38;1.47;;;0.80;;
7003;SDS011;3542;48.812;9.146;2023-05-10T13:07:05;2.00;;;0.63;;
7003;SDS011;3542;48.812;9.146;2023-05-10T13:09:31;0.93;;;0.67;;
7003;SDS011;3542;48.812;9.146;2023-05-10T13:11:57;1.47;;;0.60;;
7003;SDS011;3542;48.812;9.146;2023-05-10T13:14:22;2.50;;;1.13;;
7003;SDS011;3542;48.812;9.146;2023-05-10T13:16:48;1.63;;;0.90;;
7003;SDS011;3542;48.812;9.146;2023-05-10T13:19:14;1.70;;;1.00;;
7003;SDS011;3542;48.812;9.146;2023-05-10T13:21:40;1.00;;;0.60;;
7003;SDS011;3542;48.812;9.146;2023-05-10T13:24:06;4.20;;;0.80;;
7003;SDS011;3542;48.812;9.146;2023-05-10T13:26:32;2.70;;;0.83;;
7003;SDS011;3542;48.812;9.146;2023-05-10T13:28:58;0.70;;;0.70;;
7003;SDS011;3542;48.812;9.146;2023-05-10T13:31:24;1.80;;;0.87;;
7003;SDS011;3542;48.812;9.146;2023-05-10T13:33:52;3.03;;;0.80;;
7003;SDS011;3542;48.812;9.146;2023-05-10T13:36:18;2.60;;;1.00;;
7003;SDS011;3542;48.812;9.146;2023-05-10T13:38:43;4.97;;;0.83;;
7003;SDS011;3542;48.812;9.146;2023-05-10T13:41:09;3.63;;;1.13;;
7003;SDS011;3542;48.812;9.146;2023-05-10T13:43:36;3.23;;;0.80;;
7003;SDS011;3542;48.812;9.146;2023-05-10T13:46:02;3.03;;;0.80;;
7003;SDS011;3542;48.812;9.146;2023-05-10T13:48:28;1.13;;;0.70;;
7003;SDS011;3542;48.812;9.146;2023-05-10T13:50:53;2.40;;;0.60;;
7003;SDS011;3542;48.812;9.146;2023-05-10T13:53:19;2.00;;;0.77;;
7003;SDS011;3542;48.812;9.146;2023-05-10T13:55:44;1.53;;;0.70;;
7003;SDS011;3542;48.812;9.146;2023-05-10T13:58:10;2.90;;;0.70;;
7003;SDS011;3542;48.812;9.146;2023-05-10T14:00:35;1.03;;;0.60;;
7003;SDS011;3542;48.812;9.146;2023-05-10T14:03:01;2.10;;;0.90;;
7003;SDS011;3542;48.812;9.146;2023-05-10T14:05:30;0.70;;;0.70;;
7003;SDS011;3542;48.812;9.146;2023-05-10T14:07:55;1.27;;;0.70;;
7003;SDS011;3542;48.812;9.146;2023-05-10T14:10:22;2.73;;;0.60;;
7003;SDS011;3542;48.812;9.146;2023-05-10T14:12:47;0.77;;;0.73;;
7003;SDS011;3542;48.812;9.146;2023-05-10T14:15:13;0.87;;;0.70;;
7003;SDS011;3542;48.812;9.146;2023-05-10T14:17:38;0.50;;;0.50;;
7003;SDS011;3542;48.812;9.146;2023-05-10T14:20:04;1.37;;;0.80;;
7003;SDS011;3542;48.812;9.146;2023-05-10T14:22:30;0.77;;;0.77;;
7003;SDS011;3542;48.812;9.146;2023-05-10T14:24:55;3.37;;;0.70;;
7003;SDS011;3542;48.812;9.146;2023-05-10T14:27:21;1.33;;;0.60;;
7003;SDS011;3542;48.812;9.146;2023-05-10T14:29:47;0.90;;;0.70;;
7003;SDS011;3542;48.812;9.146;2023-05-10T14:32:12;2.30;;;0.70;;
7003;SDS011;3542;48.812;9.146;2023-05-10T14:34:38;1.03;;;0.60;;
7003;SDS011;3542;48.812;9.146;2023-05-10T14:37:06;0.63;;;0.60;;
7003;SDS011;3542;48.812;9.146;2023-05-10T14:39:32;3.23;;;1.00;;
7003;SDS011;3542;48.812;9.146;2023-05-10T14:41:58;0.60;;;0.60;;
7003;SDS011;3542;48.812;9.146;2023-05-10T14:44:26;4.30;;;0.60;;
7003;SDS011;3542;48.812;9.146;2023-05-10T14:46:52;1.73;;;0.50;;
7003;SDS011;3542;48.812;9.146;2023-05-10T14:49:18;3.17;;;1.03;;
7003;SDS011;3542;48.812;9.146;2023-05-10T14:51:46;2.77;;;0.60;;
7003;SDS011;3542;48.812;9.146;2023-05-10T14:54:12;0.83;;;0.70;;
7003;SDS011;3542;48.812;9.146;2023-05-10T14:56:37;0.60;;;0.53;;
7003;SDS011;3542;48.812;9.146;2023-05-10T14:59:06;1.73;;;0.70;;
7003;SDS011;3542;48.812;9.146;2023-05-10T15:01:31;1.13;;;0.63;;
7003;SDS011;3542;48.812;9.146;2023-05-10T15:03:57;1.30;;;0.70;;
7003;SDS011;3542;48.812;9.146;2023-05-10T15:06:23;1.47;;;0.60;;
7003;SDS011;3542;48.812;9.146;2023-05-10T15:08:55;2.83;;;0.70;;
7003;SDS011;3542;48.812;9.146;2023-05-10T15:11:20;1.63;;;0.60;;
7003;SDS011;3542;48.812;9.146;2023-05-10T15:13:46;0.90;;;0.50;;
7003;SDS011;3542;48.812;9.146;2023-05-10T15:16:11;0.90;;;0.70;;
7003;SDS011;3542;48.812;9.146;2023-05-10T15:18:37;1.87;;;0.67;;
7003;SDS011;3542;48.812;9.146;2023-05-10T15:21:03;0.97;;;0.70;;
7003;SDS011;3542;48.812;9.146;2023-05-10T15:23:28;0.80;;;0.57;;
7003;SDS011;3542;48.812;9.146;2023-05-10T15:25:54;3.10;;;0.77;;
7003;SDS011;3542;48.812;9.146;2023-05-10T15:28:20;1.43;;;0.90;;
7003;SDS011;3542;48.812;9.146;2023-05-10T15:30:46;1.43;;;1.00;;
7003;SDS011;3542;48.812;9.146;2023-05-10T15:33:11;2.40;;;0.80;;
7003;SDS011;3542;48.812;9.146;2023-05-10T15:35:37;2.00;;;0.50;;
7003;SDS011;3542;48.812;9.146;2023-05-10T15:38:04;2.23;;;0.60;;
7003;SDS011;3542;48.812;9.146;2023-05-10T15:40:30;2.07;;;0.60;;
7003;SDS011;3542;48.812;9.146;2023-05-10T15:42:56;2.10;;;0.60;;
7003;SDS011;3542;48.812;9.146;2023-05-10T15:45:21;1.53;;;0.60;;
7003;SDS011;3542;48.812;9.146;2023-05-10T15:47:47;1.13;;;0.60;;
7003;SDS011;3542;48.812;9.146;2023-05-10T15:50:13;0.70;;;0.50;;
7003;SDS011;3542;48.812;9.146;2023-05-10T15:52:39;0.70;;;0.70;;
7003;SDS011;3542;48.812;9.146;2023-05-10T15:55:06;4.30;;;1.00;;
7003;SDS011;3542;48.812;9.146;2023-05-10T15:57:44;3.97;;;1.50;;
7003;SDS011;3542;48.812;9.146;2023-05-10T16:00:10;2.30;;;1.10;;
7003;SDS011;3542;48.812;9.146;2023-05-10T16:02:37;2.10;;;0.90;;
7003;SDS011;3542;48.812;9.146;2023-05-10T16:05:05;0.70;;;0.60;;
7003;SDS011;3542;48.812;9.146;2023-05-10T16:07:32;0.87;;;0.67;;
7003;SDS011;3542;48.812;9.146;2023-05-10T16:09:58;0.60;;;0.60;;
7003;SDS011;3542;48.812;9.146;2023-05-10T16:12:23;2.33;;;0.63;;
7003;SDS011;3542;48.812;9.146;2023-05-10T16:14:49;2.93;;;0.60;;
7003;SDS011;3542;48.812;9.146;2023-05-10T16:17:14;0.60;;;0.60;;
7003;SDS011;3542;48.812;9.146;2023-05-10T16:19:40;0.83;;;0.60;;
7003;SDS011;3542;48.812;9.146;2023-05-10T16:22:08;0.70;;;0.60;;
7003;SDS011;3542;48.812;9.146;2023-05-10T16:24:34;1.53;;;0.50;;
7003;SDS011;3542;48.812;9.146;2023-05-10T16:27:03;1.10;;;0.60;;
7003;SDS011;3542;48.812;9.146;2023-05-10T16:29:29;3.60;;;0.70;;
7003;SDS011;3542;48.812;9.146;2023-05-10T16:31:55;1.23;;;0.50;;
7003;SDS011;3542;48.812;9.146;2023-05-10T16:34:21;0.73;;;0.60;;
7003;SDS011;3542;48.812;9.146;2023-05-10T16:36:48;0.63;;;0.60;;
7003;SDS011;3542;48.812;9.146;2023-05-10T16:39:14;0.60;;;0.60;;
7003;SDS011;3542;48.812;9.146;2023-05-10T16:41:39;1.13;;;0.87;;
7003;SDS011;3542;48.812;9.146;2023-05-10T16:44:07;0.80;;;0.63;;
7003;SDS011;3542;48.812;9.146;2023-05-10T16:46:33;1.70;;;0.77;;
7003;SDS011;3542;48.812;9.146;2023-05-10T16:48:58;1.03;;;0.80;;
7003;SDS011;3542;48.812;9.146;2023-05-10T16:51:25;1.23;;;0.60;;
7003;SDS011;3542;48.812;9.146;2023-05-10T16:53:50;1.50;;;0.60;;
7003;SDS011;3542;48.812;9.146;2023-05-10T16:56:23;0.60;;;0.50;;
7003;SDS011;3542;48.812;9.146;2023-05-10T16:58:48;0.60;;;0.60;;
7003;SDS011;3542;48.812;9.146;2023-05-10T17:01:15;1.47;;;0.70;;
7003;SDS011;3542;48.812;9.146;2023-05-10T17:03:41;1.67;;;0.70;;
7003;SDS011;3542;48.812;9.146;2023-05-10T17:06:06;1.17;;;0.50;;